Time;durP1;ratioP1;P1;durP2;ratioP2;P2;SDS_P1;SDS_P2;PMS_P1;PMS_P2;Temp;Humidity;BMP_temperature;BMP_pressure;BME280_temperature;BME280_humidity;BME280_pressure;Samples;Min_cycle;Max_cycle;Signal;HPM_P1;HPM_P2
2022/06/11 00:01:12;;;;;;;21.70;20.50;;;;;;;;;;5032760;28;20944;-80
2022/06/11 00:03:40;;;;;;;22.20;20.77;;;;;;;;;;5032986;28;20462;-81
2022/06/11 00:06:07;;;;;;;22.23;20.77;;;;;;;;;;5033002;28;20514;-81
2022/06/11 00:08:37;;;;;;;22.20;21.00;;;;;;;;;;5033321;28;20929;-81
2022/06/11 00:11:04;;;;;;;21.33;20.23;;;;;;;;;;5033018;28;20468;-81
2022/06/11 00:13:32;;;;;;;22.40;21.10;;;;;;;;;;5032957;28;20519;-81
2022/06/11 00:16:01;;;;;;;20.93;19.73;;;;;;;;;;5032939;28;20436;-81
2022/06/11 00:18:29;;;;;;;21.83;20.53;;;;;;;;;;5032634;28;20940;-80
2022/06/11 00:20:57;;;;;;;22.03;20.73;;;;;;;;;;5015100;28;20852;-80
2022/06/11 00:23:24;;;;;;;21.57;20.27;;;;;;;;;;5015176;28;21084;-81
2022/06/11 00:25:53;;;;;;;22.80;21.17;;;;;;;;;;5033244;28;20421;-81
2022/06/11 00:28:20;;;;;;;22.30;21.00;;;;;;;;;;5032827;28;20415;-81
2022/06/11 00:30:48;;;;;;;21.97;20.67;;;;;;;;;;5032683;28;20426;-81
2022/06/11 00:33:16;;;;;;;21.27;20.17;;;;;;;;;;5032615;28;20440;-81
2022/06/11 00:35:43;;;;;;;22.83;21.23;;;;;;;;;;5033307;28;20480;-81
2022/06/11 00:38:11;;;;;;;23.10;21.50;;;;;;;;;;5033174;28;20488;-81
2022/06/11 00:40:40;;;;;;;22.30;21.10;;;;;;;;;;5033563;28;20440;-80
2022/06/11 00:43:09;;;;;;;22.27;20.87;;;;;;;;;;5034289;28;20507;-81
2022/06/11 00:45:42;;;;;;;22.10;20.50;;;;;;;;;;5035040;28;20467;-80
2022/06/11 00:48:14;;;;;;;22.30;21.00;;;;;;;;;;5040442;28;20899;-81
2022/06/11 00:50:42;;;;;;;21.67;20.27;;;;;;;;;;5043679;28;20494;-81
2022/06/11 00:53:14;;;;;;;21.83;20.73;;;;;;;;;;5039726;28;20444;-82
2022/06/11 00:55:43;;;;;;;21.63;20.40;;;;;;;;;;5038290;28;20983;-81
2022/06/11 00:58:14;;;;;;;23.50;22.10;;;;;;;;;;5035891;28;20486;-81
2022/06/11 01:00:43;;;;;;;21.63;20.33;;;;;;;;;;5036057;28;20444;-81
2022/06/11 01:03:10;;;;;;;22.73;21.20;;;;;;;;;;5035796;28;20466;-81
2022/06/11 01:05:40;;;;;;;22.17;20.97;;;;;;;;;;5035812;28;20439;-81
2022/06/11 01:08:24;;;;;;;22.47;21.17;;;;;;;;;;5035627;28;20436;-81
2022/06/11 01:11:17;;;;;;;22.10;20.67;;;;;;;;;;5035863;28;20431;-81
2022/06/11 01:13:52;;;;;;;21.33;20.23;;;;;;;;;;5036077;28;20436;-81
2022/06/11 01:16:25;;;;;;;21.83;20.57;;;;;;;;;;5035296;28;20457;-81
2022/06/11 01:18:57;;;;;;;22.50;21.10;;;;;;;;;;5035989;28;20432;-81
2022/06/11 01:21:30;;;;;;;21.93;20.63;;;;;;;;;;5035872;28;20418;-80
2022/06/11 01:24:31;;;;;;;21.13;19.90;;;;;;;;;;5018295;28;20943;-81
2022/06/11 01:27:16;;;;;;;21.60;20.20;;;;;;;;;;4955275;29;20431;-81
2022/06/11 01:29:54;;;;;;;21.30;20.10;;;;;;;;;;4955156;29;20415;-81
2022/06/11 01:32:23;;;;;;;21.50;20.23;;;;;;;;;;4955290;29;20441;-81
2022/06/11 01:35:01;;;;;;;21.70;20.50;;;;;;;;;;4955174;29;20434;-81
2022/06/11 01:37:31;;;;;;;21.00;19.80;;;;;;;;;;4954518;29;20457;-81
2022/06/11 01:40:01;;;;;;;22.10;20.80;;;;;;;;;;4954898;29;20444;-81
2022/06/11 01:42:33;;;;;;;21.00;19.90;;;;;;;;;;4954709;29;20513;-81
2022/06/11 01:45:04;;;;;;;21.20;20.00;;;;;;;;;;4954944;29;20503;-81
2022/06/11 01:47:32;;;;;;;21.70;20.40;;;;;;;;;;4954801;29;20917;-80
2022/06/11 01:50:00;;;;;;;21.43;20.33;;;;;;;;;;4955062;29;20463;-80
2022/06/11 01:52:36;;;;;;;21.67;20.40;;;;;;;;;;4954674;29;20787;-81
2022/06/11 01:55:05;;;;;;;20.97;19.77;;;;;;;;;;4954685;29;20440;-81
2022/06/11 01:57:42;;;;;;;21.03;19.93;;;;;;;;;;4983076;28;20434;-80
2022/06/11 02:00:20;;;;;;;21.03;19.83;;;;;;;;;;5034366;28;20510;-81
2022/06/11 02:02:57;;;;;;;20.67;19.47;;;;;;;;;;5035011;28;20997;-81
2022/06/11 02:05:31;;;;;;;20.07;18.97;;;;;;;;;;5035179;28;20440;-81
2022/06/11 02:08:01;;;;;;;20.27;19.17;;;;;;;;;;5034548;28;20482;-81
2022/06/11 02:10:33;;;;;;;21.27;20.13;;;;;;;;;;5034930;28;20439;-81
2022/06/11 02:13:01;;;;;;;20.50;19.30;;;;;;;;;;5034635;28;20450;-81
2022/06/11 02:15:32;;;;;;;21.30;20.10;;;;;;;;;;5017151;28;20403;-81
2022/06/11 02:18:01;;;;;;;20.17;18.87;;;;;;;;;;5034797;28;20433;-81
2022/06/11 02:20:30;;;;;;;20.63;19.53;;;;;;;;;;5034416;28;20957;-81
2022/06/11 02:23:00;;;;;;;20.47;19.37;;;;;;;;;;5034617;28;20468;-81
2022/06/11 02:25:30;;;;;;;20.77;19.60;;;;;;;;;;5034435;28;20527;-81
2022/06/11 02:28:00;;;;;;;20.20;19.10;;;;;;;;;;5034293;28;20445;-80
2022/06/11 02:30:28;;;;;;;21.40;20.00;;;;;;;;;;5034666;28;20407;-81
2022/06/11 02:32:58;;;;;;;21.63;20.17;;;;;;;;;;5016406;28;20460;-81
2022/06/11 02:35:28;;;;;;;20.50;19.40;;;;;;;;;;5034068;28;20476;-81
2022/06/11 02:37:55;;;;;;;20.70;19.47;;;;;;;;;;5033776;28;20454;-80
2022/06/11 02:40:25;;;;;;;20.63;19.50;;;;;;;;;;5034407;28;20911;-81
2022/06/11 02:42:52;;;;;;;21.23;20.13;;;;;;;;;;5034222;28;20913;-81
2022/06/11 02:45:20;;;;;;;21.60;20.40;;;;;;;;;;5034050;28;20410;-81
2022/06/11 02:47:49;;;;;;;21.87;20.57;;;;;;;;;;5016817;28;20411;-81
2022/06/11 02:50:20;;;;;;;21.67;20.47;;;;;;;;;;5034253;28;20474;-81
2022/06/11 02:52:47;;;;;;;21.90;20.40;;;;;;;;;;5033829;28;20425;-81
2022/06/11 02:55:14;;;;;;;21.63;20.07;;;;;;;;;;5033722;28;20447;-80
2022/06/11 02:57:42;;;;;;;20.97;19.90;;;;;;;;;;5033950;28;20440;-81
2022/06/11 03:00:11;;;;;;;21.63;20.33;;;;;;;;;;5033666;28;20440;-81
2022/06/11 03:02:39;;;;;;;21.90;20.60;;;;;;;;;;5033896;28;20440;-81
2022/06/11 03:05:07;;;;;;;22.10;20.80;;;;;;;;;;5033274;28;20536;-81
2022/06/11 03:07:36;;;;;;;22.43;21.10;;;;;;;;;;5033449;28;20967;-81
2022/06/11 03:10:03;;;;;;;21.77;20.43;;;;;;;;;;5015560;28;20452;-81
2022/06/11 03:12:31;;;;;;;22.10;20.80;;;;;;;;;;5033437;28;21217;-80
2022/06/11 03:14:58;;;;;;;22.50;21.20;;;;;;;;;;5033624;28;20924;-81
2022/06/11 03:17:28;;;;;;;21.43;20.33;;;;;;;;;;5033343;28;21018;-81
2022/06/11 03:19:56;;;;;;;21.40;20.20;;;;;;;;;;5033254;28;20427;-81
2022/06/11 03:22:23;;;;;;;22.30;20.90;;;;;;;;;;5033334;28;20440;-81
2022/06/11 03:24:52;;;;;;;21.20;19.87;;;;;;;;;;5033179;28;20845;-80
2022/06/11 03:27:19;;;;;;;21.47;20.20;;;;;;;;;;5033473;28;20444;-81
2022/06/11 03:29:47;;;;;;;20.20;19.10;;;;;;;;;;5033071;28;20806;-81
2022/06/11 03:32:15;;;;;;;21.47;20.27;;;;;;;;;;5033038;28;20447;-81
2022/06/11 03:34:42;;;;;;;21.80;20.60;;;;;;;;;;5033396;28;20451;-81
2022/06/11 03:37:10;;;;;;;22.73;21.30;;;;;;;;;;5032610;28;20965;-81
2022/06/11 03:39:37;;;;;;;22.17;20.77;;;;;;;;;;5033331;28;20418;-80
2022/06/11 03:42:08;;;;;;;21.53;20.23;;;;;;;;;;5033001;28;20865;-81
2022/06/11 03:44:35;;;;;;;21.80;20.50;;;;;;;;;;5032856;28;20491;-81
2022/06/11 03:47:02;;;;;;;21.40;20.30;;;;;;;;;;5032834;28;20419;-80
2022/06/11 03:49:30;;;;;;;21.33;20.13;;;;;;;;;;5032925;28;20440;-81
2022/06/11 03:51:57;;;;;;;21.33;20.13;;;;;;;;;;5032958;28;20436;-81
2022/06/11 03:54:25;;;;;;;20.83;19.60;;;;;;;;;;5032755;28;20775;-81
2022/06/11 03:56:52;;;;;;;21.20;19.80;;;;;;;;;;5032703;28;20473;-80
2022/06/11 03:59:21;;;;;;;21.27;19.90;;;;;;;;;;5015429;28;20448;-82
2022/06/11 04:01:49;;;;;;;21.40;20.20;;;;;;;;;;5033034;28;20450;-82
2022/06/11 04:04:18;;;;;;;20.67;19.47;;;;;;;;;;5032381;28;21052;-79
2022/06/11 04:06:47;;;;;;;21.57;20.27;;;;;;;;;;5032424;28;20426;-81
2022/06/11 04:09:16;;;;;;;21.37;20.07;;;;;;;;;;5032722;28;20444;-81
2022/06/11 04:11:43;;;;;;;20.60;19.40;;;;;;;;;;5032638;28;20436;-82
2022/06/11 04:14:11;;;;;;;20.60;19.40;;;;;;;;;;5032699;28;20427;-82
2022/06/11 04:16:42;;;;;;;22.43;20.63;;;;;;;;;;5032647;28;20468;-82
2022/06/11 04:19:14;;;;;;;22.07;20.00;;;;;;;;;;5032744;28;20439;-82
2022/06/11 04:21:41;;;;;;;21.30;19.93;;;;;;;;;;5033828;28;20455;-82
2022/06/11 04:24:09;;;;;;;21.90;20.50;;;;;;;;;;5036660;28;20484;-82
2022/06/11 04:26:40;;;;;;;23.20;21.80;;;;;;;;;;5036660;28;20480;-82
2022/06/11 04:29:09;;;;;;;23.00;21.43;;;;;;;;;;5018923;28;20929;-82
2022/06/11 04:31:36;;;;;;;23.00;21.70;;;;;;;;;;5036844;28;20444;-82
2022/06/11 04:34:05;;;;;;;22.40;21.00;;;;;;;;;;5036574;28;20440;-82
2022/06/11 04:36:34;;;;;;;21.63;20.43;;;;;;;;;;5018659;28;20460;-83
2022/06/11 04:39:02;;;;;;;21.90;20.60;;;;;;;;;;5036105;28;20489;-82
2022/06/11 04:41:29;;;;;;;21.93;20.53;;;;;;;;;;5036698;28;20440;-82
2022/06/11 04:43:57;;;;;;;20.93;19.70;;;;;;;;;;5036567;28;20458;-82
2022/06/11 04:46:24;;;;;;;23.03;21.50;;;;;;;;;;5036539;28;20423;-82
2022/06/11 04:48:52;;;;;;;22.87;21.30;;;;;;;;;;5036239;28;20904;-82
2022/06/11 04:51:21;;;;;;;22.50;20.93;;;;;;;;;;5036192;28;20914;-83
2022/06/11 04:53:49;;;;;;;23.03;21.73;;;;;;;;;;5036200;28;20432;-82
2022/06/11 04:56:18;;;;;;;22.00;20.80;;;;;;;;;;5036139;28;20476;-82
2022/06/11 04:58:45;;;;;;;23.27;21.73;;;;;;;;;;5036146;28;20440;-82
2022/06/11 05:01:13;;;;;;;22.70;21.13;;;;;;;;;;5036318;28;20435;-81
2022/06/11 05:03:41;;;;;;;23.23;21.07;;;;;;;;;;5036170;28;20452;-83
2022/06/11 05:06:08;;;;;;;23.53;21.73;;;;;;;;;;5035683;28;20439;-83
2022/06/11 05:08:37;;;;;;;22.83;21.33;;;;;;;;;;5036218;28;20436;-82
2022/06/11 05:11:05;;;;;;;22.97;21.57;;;;;;;;;;5035801;28;20925;-82
2022/06/11 05:13:33;;;;;;;22.87;21.47;;;;;;;;;;5036170;28;20475;-82
2022/06/11 05:16:00;;;;;;;22.10;20.80;;;;;;;;;;5035582;28;20503;-82
2022/06/11 05:18:28;;;;;;;22.17;20.80;;;;;;;;;;5035978;28;20418;-82
2022/06/11 05:20:55;;;;;;;22.83;21.53;;;;;;;;;;5035809;28;20456;-83
2022/06/11 05:23:23;;;;;;;23.10;21.70;;;;;;;;;;5035979;28;20475;-82
2022/06/11 05:25:52;;;;;;;22.10;20.60;;;;;;;;;;5035886;28;20465;-82
2022/06/11 05:28:20;;;;;;;21.37;19.87;;;;;;;;;;5035490;28;20418;-83
2022/06/11 05:30:48;;;;;;;22.47;21.20;;;;;;;;;;5035434;28;20435;-82
2022/06/11 05:33:16;;;;;;;21.73;20.40;;;;;;;;;;5035488;28;20431;-82
2022/06/11 05:35:45;;;;;;;22.20;20.77;;;;;;;;;;5035619;28;20487;-83
2022/06/11 05:38:15;;;;;;;22.60;21.03;;;;;;;;;;5035239;28;20455;-83
2022/06/11 05:40:44;;;;;;;22.93;21.40;;;;;;;;;;5017658;28;20946;-82
2022/06/11 05:43:14;;;;;;;21.97;20.77;;;;;;;;;;5035271;28;20469;-81
2022/06/11 05:45:44;;;;;;;22.07;20.77;;;;;;;;;;5035149;28;20465;-82
2022/06/11 05:48:12;;;;;;;22.10;20.80;;;;;;;;;;5035382;28;20441;-83
2022/06/11 05:50:41;;;;;;;22.37;20.87;;;;;;;;;;5035573;28;20513;-83
2022/06/11 05:53:09;;;;;;;21.70;20.10;;;;;;;;;;5035069;28;20436;-82
2022/06/11 05:55:39;;;;;;;21.93;20.43;;;;;;;;;;5035306;28;20796;-83
2022/06/11 05:58:07;;;;;;;20.93;19.83;;;;;;;;;;5035030;28;20418;-82
2022/06/11 06:00:37;;;;;;;21.70;20.40;;;;;;;;;;5035228;28;20422;-82
2022/06/11 06:03:04;;;;;;;21.50;20.30;;;;;;;;;;5035345;28;20506;-83
2022/06/11 06:05:32;;;;;;;21.50;20.20;;;;;;;;;;5035064;28;20866;-83
2022/06/11 06:08:00;;;;;;;21.23;19.80;;;;;;;;;;5034674;28;20436;-82
2022/06/11 06:10:27;;;;;;;21.30;20.10;;;;;;;;;;5035065;28;20417;-82
2022/06/11 06:12:54;;;;;;;20.87;19.70;;;;;;;;;;5034961;28;20431;-81
2022/06/11 06:15:23;;;;;;;22.67;20.50;;;;;;;;;;5035233;28;20440;-79
2022/06/11 06:17:52;;;;;;;22.60;20.93;;;;;;;;;;5034561;28;20407;-79
2022/06/11 06:20:21;;;;;;;22.87;21.50;;;;;;;;;;5034540;28;20444;-79
2022/06/11 06:22:48;;;;;;;21.27;19.83;;;;;;;;;;5034426;28;20495;-79
2022/06/11 06:25:17;;;;;;;20.63;19.53;;;;;;;;;;5034866;28;21030;-79
2022/06/11 06:27:44;;;;;;;20.77;19.47;;;;;;;;;;5034618;28;20410;-79
2022/06/11 06:30:12;;;;;;;20.90;19.70;;;;;;;;;;5034632;28;20419;-79
2022/06/11 06:32:40;;;;;;;21.40;20.17;;;;;;;;;;5034667;28;20407;-79
2022/06/11 06:35:09;;;;;;;21.17;19.87;;;;;;;;;;5034315;28;20493;-79
2022/06/11 06:37:36;;;;;;;20.30;19.23;;;;;;;;;;5034012;28;20471;-80
2022/06/11 06:40:04;;;;;;;20.27;19.10;;;;;;;;;;5034479;28;20423;-79
2022/06/11 06:42:31;;;;;;;20.27;19.10;;;;;;;;;;5034117;28;20423;-78
2022/06/11 06:44:59;;;;;;;19.73;18.53;;;;;;;;;;5033470;28;20499;-80
2022/06/11 06:47:26;;;;;;;19.97;18.80;;;;;;;;;;5033912;28;20448;-79
2022/06/11 06:49:54;;;;;;;20.43;19.23;;;;;;;;;;5033987;28;20795;-80
2022/06/11 06:52:23;;;;;;;20.17;18.87;;;;;;;;;;5034086;28;20501;-80
2022/06/11 06:54:50;;;;;;;19.67;18.60;;;;;;;;;;5033988;28;20430;-79
2022/06/11 06:57:18;;;;;;;20.17;18.97;;;;;;;;;;5033669;28;20444;-80
2022/06/11 06:59:45;;;;;;;20.30;19.20;;;;;;;;;;5034053;28;20445;-80
2022/06/11 07:02:14;;;;;;;20.27;18.93;;;;;;;;;;5034003;28;20440;-80
2022/06/11 07:04:42;;;;;;;20.10;18.90;;;;;;;;;;5033535;28;21027;-79
2022/06/11 07:07:14;;;;;;;20.43;18.83;;;;;;;;;;5033539;28;20945;-79
2022/06/11 07:09:43;;;;;;;20.30;18.80;;;;;;;;;;5033468;28;20448;-80
2022/06/11 07:12:11;;;;;;;20.00;18.90;;;;;;;;;;5033777;28;20440;-80
2022/06/11 07:14:38;;;;;;;20.10;18.93;;;;;;;;;;5033599;28;20425;-78
2022/06/11 07:17:07;;;;;;;18.93;17.90;;;;;;;;;;5033337;28;20407;-79
2022/06/11 07:19:37;;;;;;;19.80;18.70;;;;;;;;;;5033624;28;20464;-78
2022/06/11 07:22:06;;;;;;;20.50;19.30;;;;;;;;;;5033338;28;20411;-79
2022/06/11 07:24:36;;;;;;;20.60;19.30;;;;;;;;;;5033403;28;20458;-78
2022/06/11 07:27:06;;;;;;;19.50;18.50;;;;;;;;;;5033489;28;20436;-80
2022/06/11 07:29:36;;;;;;;20.03;19.03;;;;;;;;;;5033414;28;20448;-78
2022/06/11 07:32:06;;;;;;;20.53;19.33;;;;;;;;;;5033232;28;20769;-78
2022/06/11 07:34:34;;;;;;;21.47;20.27;;;;;;;;;;5033135;28;20455;-79
2022/06/11 07:37:02;;;;;;;21.43;20.23;;;;;;;;;;5032339;28;20450;-79
2022/06/11 07:39:29;;;;;;;19.97;18.77;;;;;;;;;;5015390;28;20847;-78
2022/06/11 07:41:57;;;;;;;19.90;18.80;;;;;;;;;;5033275;28;20440;-78
2022/06/11 07:44:25;;;;;;;20.20;19.10;;;;;;;;;;5032947;28;20411;-78
2022/06/11 07:46:53;;;;;;;20.40;19.03;;;;;;;;;;5033174;28;20423;-78
2022/06/11 07:49:20;;;;;;;20.20;19.00;;;;;;;;;;5033241;28;20432;-78
2022/06/11 07:51:48;;;;;;;19.40;18.40;;;;;;;;;;5032846;28;20909;-78
2022/06/11 07:54:15;;;;;;;20.70;19.50;;;;;;;;;;5033145;28;20411;-78
2022/06/11 07:56:42;;;;;;;20.07;18.97;;;;;;;;;;5031861;28;20448;-76
2022/06/11 07:59:10;;;;;;;20.53;19.23;;;;;;;;;;5032823;28;20446;-78
2022/06/11 08:01:39;;;;;;;21.07;19.87;;;;;;;;;;5032936;28;20441;-77
2022/06/11 08:04:06;;;;;;;21.00;19.90;;;;;;;;;;5032702;28;20432;-78
2022/06/11 08:06:34;;;;;;;20.17;19.10;;;;;;;;;;5032684;28;20491;-78
2022/06/11 08:09:01;;;;;;;21.10;19.90;;;;;;;;;;5032654;28;20444;-79
2022/06/11 08:11:28;;;;;;;20.30;19.00;;;;;;;;;;5032875;28;20441;-78
2022/06/11 08:13:56;;;;;;;21.37;20.07;;;;;;;;;;5032803;28;20440;-79
2022/06/11 08:16:23;;;;;;;20.77;19.57;;;;;;;;;;5032432;28;20439;-80
2022/06/11 08:18:52;;;;;;;20.90;19.70;;;;;;;;;;5032455;28;20446;-80
2022/06/11 08:21:19;;;;;;;20.70;19.50;;;;;;;;;;5032522;28;20525;-79
2022/06/11 08:23:47;;;;;;;21.30;20.10;;;;;;;;;;5032744;28;20451;-80
2022/06/11 08:26:16;;;;;;;20.90;19.60;;;;;;;;;;5032346;28;20476;-80
2022/06/11 08:28:44;;;;;;;20.73;19.60;;;;;;;;;;5032359;28;20457;-80
2022/06/11 08:31:11;;;;;;;20.77;19.57;;;;;;;;;;5032217;28;20499;-80
2022/06/11 08:33:38;;;;;;;22.70;21.40;;;;;;;;;;5015190;28;20960;-80
2022/06/11 08:36:07;;;;;;;22.87;21.50;;;;;;;;;;5032163;28;20482;-79
2022/06/11 08:38:35;;;;;;;21.27;20.07;;;;;;;;;;5032086;28;20487;-79
2022/06/11 08:41:02;;;;;;;21.43;20.30;;;;;;;;;;5032365;28;20407;-83
2022/06/11 08:43:31;;;;;;;21.73;20.43;;;;;;;;;;5032616;28;20452;-80
2022/06/11 08:45:59;;;;;;;23.80;22.50;;;;;;;;;;5032207;28;20466;-80
2022/06/11 08:48:31;;;;;;;23.73;22.43;;;;;;;;;;5032759;28;20456;-79
2022/06/11 08:51:09;;;;;;;24.60;23.20;;;;;;;;;;5032550;28;20425;-81
2022/06/11 08:53:38;;;;;;;24.00;22.70;;;;;;;;;;5032691;28;20451;-82
2022/06/11 08:56:07;;;;;;;25.23;23.73;;;;;;;;;;5032179;28;20415;-81
2022/06/11 08:58:45;;;;;;;23.70;22.43;;;;;;;;;;5032176;28;20436;-82
2022/06/11 09:01:16;;;;;;;24.73;23.23;;;;;;;;;;5032469;28;20411;-81
2022/06/11 09:03:56;;;;;;;24.97;23.57;;;;;;;;;;5032154;28;20468;-82
2022/06/11 09:06:32;;;;;;;24.37;23.07;;;;;;;;;;5032745;28;20490;-91
2022/06/11 09:09:04;;;;;;;24.87;23.57;;;;;;;;;;5035835;28;20418;-80
2022/06/11 09:11:46;;;;;;;25.13;23.67;;;;;;;;;;5036127;28;20430;-81
2022/06/11 09:14:24;;;;;;;24.83;23.30;;;;;;;;;;5015715;28;20784;-81
2022/06/11 09:16:59;;;;;;;23.87;22.57;;;;;;;;;;5035544;28;20440;-81
2022/06/11 09:19:44;;;;;;;25.83;24.13;;;;;;;;;;5035830;28;20425;-81
2022/06/11 09:22:19;;;;;;;23.43;22.13;;;;;;;;;;5035402;28;20463;-81
2022/06/11 09:24:54;;;;;;;23.70;22.23;;;;;;;;;;5035837;28;20465;-82
2022/06/11 09:27:25;;;;;;;23.23;21.67;;;;;;;;;;5034842;28;20433;-79
2022/06/11 09:29:56;;;;;;;22.20;20.97;;;;;;;;;;5028435;28;20783;-79
2022/06/11 09:32:27;;;;;;;22.83;21.53;;;;;;;;;;5034271;28;20415;-81
2022/06/11 09:34:55;;;;;;;22.63;21.23;;;;;;;;;;5035259;28;20463;-81
2022/06/11 09:37:25;;;;;;;22.27;20.97;;;;;;;;;;5017789;28;20444;-79
2022/06/11 09:39:58;;;;;;;22.87;21.43;;;;;;;;;;5035542;28;20807;-80
2022/06/11 09:42:42;;;;;;;22.50;21.07;;;;;;;;;;5035227;28;20788;-80
2022/06/11 09:45:14;;;;;;;22.43;20.90;;;;;;;;;;5034845;28;20444;-79
2022/06/11 09:47:46;;;;;;;23.37;22.07;;;;;;;;;;5035507;28;20418;-82
2022/06/11 09:50:18;;;;;;;22.00;20.70;;;;;;;;;;5035282;28;20848;-78
2022/06/11 09:52:49;;;;;;;22.13;20.83;;;;;;;;;;5035047;28;20444;-78
2022/06/11 09:55:27;;;;;;;21.87;20.60;;;;;;;;;;5034934;28;20456;-79
2022/06/11 09:57:58;;;;;;;23.17;21.77;;;;;;;;;;5035178;28;20468;-79
2022/06/11 10:00:26;;;;;;;22.87;21.47;;;;;;;;;;5035314;28;20415;-83
2022/06/11 10:03:00;;;;;;;22.40;20.90;;;;;;;;;;5034885;28;20411;-79
2022/06/11 10:05:30;;;;;;;21.73;20.33;;;;;;;;;;5017337;28;20454;-82
2022/06/11 10:08:00;;;;;;;22.57;21.17;;;;;;;;;;5035120;28;20415;-83
2022/06/11 10:10:31;;;;;;;23.20;21.80;;;;;;;;;;5034745;28;20487;-82
2022/06/11 10:13:02;;;;;;;22.13;20.87;;;;;;;;;;5035094;28;20468;-82
2022/06/11 10:15:33;;;;;;;22.73;21.20;;;;;;;;;;5034833;28;20431;-83
2022/06/11 10:18:03;;;;;;;22.93;21.43;;;;;;;;;;5034583;28;21059;-82
2022/06/11 10:20:32;;;;;;;22.60;21.20;;;;;;;;;;5033913;28;20639;-82
2022/06/11 10:23:02;;;;;;;22.03;20.80;;;;;;;;;;5034656;28;20527;-82
2022/06/11 10:25:33;;;;;;;23.07;21.33;;;;;;;;;;5034337;28;20834;-82
2022/06/11 10:28:02;;;;;;;22.60;21.10;;;;;;;;;;5034789;28;20810;-82
2022/06/11 10:30:42;;;;;;;21.90;20.60;;;;;;;;;;5034798;28;20438;-83
2022/06/11 10:33:14;;;;;;;22.90;21.40;;;;;;;;;;5034408;28;20440;-82
2022/06/11 10:35:44;;;;;;;22.80;21.43;;;;;;;;;;5034515;28;20532;-83
2022/06/11 10:38:24;;;;;;;22.20;20.90;;;;;;;;;;5033968;28;21063;-83
2022/06/11 10:40:54;;;;;;;22.60;21.20;;;;;;;;;;5034572;28;20439;-83
2022/06/11 10:43:24;;;;;;;21.30;20.00;;;;;;;;;;5034518;28;20444;-82
2022/06/11 10:45:51;;;;;;;22.23;20.80;;;;;;;;;;5034406;28;20478;-82
2022/06/11 10:48:20;;;;;;;22.27;20.93;;;;;;;;;;5034415;28;20426;-83
2022/06/11 10:50:48;;;;;;;22.83;21.27;;;;;;;;;;5033951;28;20418;-82
2022/06/11 10:53:19;;;;;;;23.40;21.80;;;;;;;;;;5034101;28;20439;-82
2022/06/11 10:55:49;;;;;;;22.27;20.97;;;;;;;;;;5034023;28;20423;-82
2022/06/11 10:58:22;;;;;;;22.53;21.20;;;;;;;;;;5034195;28;20516;-83
2022/06/11 11:00:52;;;;;;;22.77;21.47;;;;;;;;;;5034407;28;20468;-84
2022/06/11 11:03:23;;;;;;;24.30;22.80;;;;;;;;;;5034424;28;20427;-83
2022/06/11 11:05:53;;;;;;;22.03;20.83;;;;;;;;;;5033840;28;20913;-84
2022/06/11 11:08:20;;;;;;;22.37;21.07;;;;;;;;;;5034117;28;20440;-82
2022/06/11 11:10:50;;;;;;;23.33;21.90;;;;;;;;;;5033686;28;20476;-83
2022/06/11 11:13:25;;;;;;;24.10;22.70;;;;;;;;;;5034013;28;20418;-83
2022/06/11 11:16:01;;;;;;;25.10;23.40;;;;;;;;;;5033627;28;20773;-82
2022/06/11 11:18:33;;;;;;;22.00;20.80;;;;;;;;;;5033909;28;20414;-82
2022/06/11 11:21:01;;;;;;;23.07;21.70;;;;;;;;;;5033518;28;20447;-83
2022/06/11 11:23:31;;;;;;;22.67;21.37;;;;;;;;;;5033703;28;20424;-84
2022/06/11 11:26:01;;;;;;;23.17;21.63;;;;;;;;;;5033403;28;20501;-82
2022/06/11 11:28:32;;;;;;;22.93;21.63;;;;;;;;;;5033759;28;20907;-83
2022/06/11 11:31:03;;;;;;;23.30;21.90;;;;;;;;;;5033373;28;20767;-83
2022/06/11 11:33:31;;;;;;;23.90;22.20;;;;;;;;;;5033471;28;20877;-83
2022/06/11 11:36:04;;;;;;;23.40;22.00;;;;;;;;;;5033096;28;20442;-83
2022/06/11 11:38:31;;;;;;;23.90;22.40;;;;;;;;;;5033423;28;20454;-83
2022/06/11 11:41:01;;;;;;;22.93;21.63;;;;;;;;;;5033343;28;20937;-83
2022/06/11 11:43:36;;;;;;;23.30;22.00;;;;;;;;;;5033632;28;20426;-83
2022/06/11 11:46:04;;;;;;;23.03;21.50;;;;;;;;;;5033023;28;20545;-83
2022/06/11 11:48:33;;;;;;;23.47;22.07;;;;;;;;;;5033178;28;20412;-78
2022/06/11 11:51:03;;;;;;;23.40;22.00;;;;;;;;;;5033550;28;20486;-84
2022/06/11 11:53:33;;;;;;;24.00;22.60;;;;;;;;;;5033585;28;20411;-83
2022/06/11 11:56:03;;;;;;;23.60;22.10;;;;;;;;;;5033174;28;20444;-83
2022/06/11 11:58:33;;;;;;;25.00;23.30;;;;;;;;;;5033714;28;20440;-84
2022/06/11 12:01:03;;;;;;;22.33;21.13;;;;;;;;;;5033553;28;20440;-85
2022/06/11 12:03:34;;;;;;;23.27;21.87;;;;;;;;;;5033140;28;20436;-84
2022/06/11 12:06:01;;;;;;;23.50;22.20;;;;;;;;;;5033275;28;20526;-84
2022/06/11 12:08:31;;;;;;;23.40;22.00;;;;;;;;;;5033638;28;20407;-84
2022/06/11 12:11:01;;;;;;;23.83;22.43;;;;;;;;;;5033000;28;20432;-84
2022/06/11 12:13:30;;;;;;;23.73;22.23;;;;;;;;;;5033404;28;20435;-85
2022/06/11 12:15:59;;;;;;;25.60;24.10;;;;;;;;;;5033336;28;20436;-84
2022/06/11 12:18:32;;;;;;;23.67;22.17;;;;;;;;;;5033373;28;20451;-83
2022/06/11 12:21:00;;;;;;;24.07;22.67;;;;;;;;;;5032997;28;20443;-84
2022/06/11 12:23:30;;;;;;;25.20;23.70;;;;;;;;;;5033452;28;20502;-82
2022/06/11 12:26:01;;;;;;;24.27;22.87;;;;;;;;;;5032842;28;20451;-84
2022/06/11 12:28:29;;;;;;;23.70;22.40;;;;;;;;;;5033356;28;20441;-85
2022/06/11 12:30:57;;;;;;;23.67;22.37;;;;;;;;;;5033482;28;20497;-85
2022/06/11 12:33:25;;;;;;;23.50;22.20;;;;;;;;;;5033249;28;20455;-84
2022/06/11 12:35:55;;;;;;;23.50;21.90;;;;;;;;;;5032653;28;20482;-85
2022/06/11 12:38:27;;;;;;;22.87;21.50;;;;;;;;;;5032869;28;20483;-84
2022/06/11 12:41:00;;;;;;;24.10;22.70;;;;;;;;;;5033327;28;21362;-84
2022/06/11 12:43:33;;;;;;;24.50;22.90;;;;;;;;;;5035469;28;20418;-84
2022/06/11 12:46:05;;;;;;;23.70;22.30;;;;;;;;;;5036831;28;20798;-84
2022/06/11 12:48:47;;;;;;;24.20;22.70;;;;;;;;;;5036690;28;20439;-85
2022/06/11 12:51:20;;;;;;;23.97;22.40;;;;;;;;;;5036829;28;20543;-85
2022/06/11 12:53:58;;;;;;;24.47;22.47;;;;;;;;;;5037062;28;20750;-85
2022/06/11 12:56:41;;;;;;;24.60;23.10;;;;;;;;;;5036858;28;20421;-84
2022/06/11 12:59:18;;;;;;;24.30;22.80;;;;;;;;;;5034138;28;20823;-85
2022/06/11 13:01:50;;;;;;;22.80;21.40;;;;;;;;;;5036727;28;20436;-84
2022/06/11 13:04:25;;;;;;;23.87;22.47;;;;;;;;;;5036766;28;20426;-83
2022/06/11 13:07:08;;;;;;;23.50;22.10;;;;;;;;;;5036263;28;20466;-85
2022/06/11 13:09:44;;;;;;;24.50;23.00;;;;;;;;;;5033760;28;20415;-84
2022/06/11 13:12:17;;;;;;;24.33;22.73;;;;;;;;;;5036527;28;20433;-84
2022/06/11 13:15:02;;;;;;;24.17;22.50;;;;;;;;;;5035793;28;20422;-82
2022/06/11 13:17:39;;;;;;;24.53;23.03;;;;;;;;;;5035956;28;20749;-83
2022/06/11 13:20:10;;;;;;;24.40;22.90;;;;;;;;;;5036000;28;20443;-84
2022/06/11 13:22:42;;;;;;;24.63;23.13;;;;;;;;;;5018124;28;20926;-81
2022/06/11 13:25:19;;;;;;;24.37;22.87;;;;;;;;;;5036316;28;20440;-80
2022/06/11 13:27:50;;;;;;;25.40;23.90;;;;;;;;;;5036330;28;20479;-85
2022/06/11 13:30:22;;;;;;;24.57;23.07;;;;;;;;;;5036282;28;20444;-85
2022/06/11 13:32:52;;;;;;;25.33;23.83;;;;;;;;;;5036126;28;20411;-84
2022/06/11 13:35:22;;;;;;;25.20;23.50;;;;;;;;;;5036098;28;20447;-85
2022/06/11 13:37:53;;;;;;;25.27;23.70;;;;;;;;;;5018107;28;20844;-81
2022/06/11 13:40:26;;;;;;;24.47;22.97;;;;;;;;;;5027727;28;20809;-79
2022/06/11 13:42:58;;;;;;;25.77;24.17;;;;;;;;;;5035335;28;20438;-81
2022/06/11 13:45:31;;;;;;;25.07;23.57;;;;;;;;;;5035326;28;20436;-81
2022/06/11 13:48:03;;;;;;;25.13;23.53;;;;;;;;;;5017156;28;20561;-78
2022/06/11 13:50:35;;;;;;;25.03;23.43;;;;;;;;;;5035069;28;20742;-80
2022/06/11 13:55:53;;;;;;;25.73;24.13;;;;;;;;;;5034078;28;20880;-78
2022/06/11 13:58:32;;;;;;;25.70;24.10;;;;;;;;;;5021974;28;20785;-80
2022/06/11 14:01:07;;;;;;;24.50;23.10;;;;;;;;;;5014933;28;20777;-79
2022/06/11 14:03:52;;;;;;;24.57;22.87;;;;;;;;;;5015869;28;20436;-93
2022/06/11 14:06:19;;;;;;;24.80;23.30;;;;;;;;;;5017198;28;20495;-93
2022/06/11 14:08:50;;;;;;;28.93;26.97;;;;;;;;;;5016666;28;20958;-93
2022/06/11 14:11:21;;;;;;;26.70;25.10;;;;;;;;;;5016697;28;20445;-93
2022/06/11 14:13:54;;;;;;;26.47;24.63;;;;;;;;;;5017483;28;20457;-93
2022/06/11 14:16:38;;;;;;;24.77;23.17;;;;;;;;;;5016984;28;20445;-92
2022/06/11 14:19:20;;;;;;;24.80;23.20;;;;;;;;;;5016765;28;20429;-87
2022/06/11 14:21:49;;;;;;;25.27;23.77;;;;;;;;;;5015776;28;20427;-89
2022/06/11 14:24:31;;;;;;;25.73;24.17;;;;;;;;;;4997133;28;20461;-81
2022/06/11 14:27:00;;;;;;;25.40;23.90;;;;;;;;;;5013870;28;20515;-81
2022/06/11 14:29:29;;;;;;;31.47;29.00;;;;;;;;;;5014558;28;20441;-80
2022/06/11 14:31:58;;;;;;;33.37;31.10;;;;;;;;;;5014803;28;20441;-82
2022/06/11 14:34:27;;;;;;;25.40;23.90;;;;;;;;;;5014700;28;20468;-82
2022/06/11 14:37:14;;;;;;;38.63;35.83;;;;;;;;;;5014400;28;20433;-82